sensor_id;sensor_type;location;lat;lon;timestamp;P1;durP1;ratioP1;P2;durP2;ratioP2
21162;SDS011;10739;52.198;20.908;2022-12-10T00:01:28;110.93;;;61.50;;
21162;SDS011;10739;52.198;20.908;2022-12-10T00:03:56;110.70;;;60.30;;
21162;SDS011;10739;52.198;20.908;2022-12-10T00:06:28;116.35;;;60.72;;
21162;SDS011;10739;52.198;20.908;2022-12-10T00:08:57;106.93;;;56.75;;
21162;SDS011;10739;52.198;20.908;2022-12-10T00:11:26;106.15;;;57.92;;
21162;SDS011;10739;52.198;20.908;2022-12-10T00:13:53;108.35;;;56.88;;
21162;SDS011;10739;52.198;20.908;2022-12-10T00:16:20;108.22;;;57.05;;
21162;SDS011;10739;52.198;20.908;2022-12-10T00:18:49;102.38;;;55.10;;
21162;SDS011;10739;52.198;20.908;2022-12-10T00:21:18;104.30;;;56.85;;
21162;SDS011;10739;52.198;20.908;2022-12-10T00:23:48;106.00;;;55.15;;
21162;SDS011;10739;52.198;20.908;2022-12-10T00:26:16;105.65;;;53.45;;
21162;SDS011;10739;52.198;20.908;2022-12-10T00:28:51;102.78;;;53.78;;
21162;SDS011;10739;52.198;20.908;2022-12-10T00:31:19;104.03;;;54.95;;
21162;SDS011;10739;52.198;20.908;2022-12-10T00:33:56;104.88;;;54.88;;
21162;SDS011;10739;52.198;20.908;2022-12-10T00:36:25;104.47;;;54.35;;
21162;SDS011;10739;52.198;20.908;2022-12-10T00:39:02;114.15;;;56.08;;
21162;SDS011;10739;52.198;20.908;2022-12-10T00:41:30;109.93;;;55.17;;
21162;SDS011;10739;52.198;20.908;2022-12-10T00:43:56;109.80;;;57.28;;
21162;SDS011;10739;52.198;20.908;2022-12-10T00:46:22;109.15;;;56.25;;
21162;SDS011;10739;52.198;20.908;2022-12-10T00:48:48;119.10;;;57.05;;
21162;SDS011;10739;52.198;20.908;2022-12-10T00:51:16;111.35;;;57.65;;
21162;SDS011;10739;52.198;20.908;2022-12-10T00:53:45;105.30;;;54.92;;
21162;SDS011;10739;52.198;20.908;2022-12-10T00:56:14;104.85;;;54.38;;
21162;SDS011;10739;52.198;20.908;2022-12-10T00:58:43;112.45;;;56.83;;
21162;SDS011;10739;52.198;20.908;2022-12-10T01:03:51;104.28;;;54.47;;
21162;SDS011;10739;52.198;20.908;2022-12-10T01:06:22;106.45;;;54.95;;
21162;SDS011;10739;52.198;20.908;2022-12-10T01:08:56;110.00;;;56.63;;
21162;SDS011;10739;52.198;20.908;2022-12-10T01:11:26;108.85;;;55.42;;
21162;SDS011;10739;52.198;20.908;2022-12-10T01:13:57;99.35;;;53.20;;
21162;SDS011;10739;52.198;20.908;2022-12-10T01:16:24;106.97;;;55.78;;
21162;SDS011;10739;52.198;20.908;2022-12-10T01:18:54;103.40;;;54.05;;
21162;SDS011;10739;52.198;20.908;2022-12-10T01:21:24;103.55;;;54.25;;
21162;SDS011;10739;52.198;20.908;2022-12-10T01:23:52;103.28;;;53.72;;
21162;SDS011;10739;52.198;20.908;2022-12-10T01:26:21;101.63;;;51.53;;
21162;SDS011;10739;52.198;20.908;2022-12-10T01:28:54;100.57;;;53.33;;
21162;SDS011;10739;52.198;20.908;2022-12-10T01:31:24;101.85;;;53.67;;
21162;SDS011;10739;52.198;20.908;2022-12-10T01:33:54;101.97;;;52.33;;
21162;SDS011;10739;52.198;20.908;2022-12-10T01:36:26;99.32;;;51.50;;
21162;SDS011;10739;52.198;20.908;2022-12-10T01:38:56;104.03;;;53.03;;
21162;SDS011;10739;52.198;20.908;2022-12-10T01:41:25;103.43;;;54.22;;
21162;SDS011;10739;52.198;20.908;2022-12-10T01:44:02;104.40;;;53.78;;
21162;SDS011;10739;52.198;20.908;2022-12-10T01:46:36;106.63;;;54.50;;
21162;SDS011;10739;52.198;20.908;2022-12-10T01:49:11;111.85;;;54.88;;
21162;SDS011;10739;52.198;20.908;2022-12-10T01:51:42;112.22;;;54.83;;
21162;SDS011;10739;52.198;20.908;2022-12-10T01:54:16;113.82;;;54.63;;
21162;SDS011;10739;52.198;20.908;2022-12-10T01:57:03;116.10;;;55.50;;
21162;SDS011;10739;52.198;20.908;2022-12-10T01:59:35;109.50;;;54.65;;
21162;SDS011;10739;52.198;20.908;2022-12-10T02:13:55;115.93;;;54.45;;
21162;SDS011;10739;52.198;20.908;2022-12-10T02:19:06;110.47;;;53.50;;
21162;SDS011;10739;52.198;20.908;2022-12-10T02:21:41;109.97;;;53.20;;
21162;SDS011;10739;52.198;20.908;2022-12-10T02:24:14;110.75;;;53.30;;
21162;SDS011;10739;52.198;20.908;2022-12-10T02:29:37;114.20;;;52.80;;
21162;SDS011;10739;52.198;20.908;2022-12-10T02:32:08;104.90;;;52.38;;
21162;SDS011;10739;52.198;20.908;2022-12-10T02:34:48;109.20;;;50.60;;
21162;SDS011;10739;52.198;20.908;2022-12-10T02:37:22;103.65;;;49.10;;
21162;SDS011;10739;52.198;20.908;2022-12-10T02:39:58;104.55;;;50.05;;
21162;SDS011;10739;52.198;20.908;2022-12-10T02:42:30;105.65;;;51.25;;
21162;SDS011;10739;52.198;20.908;2022-12-10T02:45:00;105.65;;;51.63;;
21162;SDS011;10739;52.198;20.908;2022-12-10T02:47:28;100.82;;;49.05;;
21162;SDS011;10739;52.198;20.908;2022-12-10T02:49:56;112.13;;;52.90;;
21162;SDS011;10739;52.198;20.908;2022-12-10T02:52:24;97.72;;;47.92;;
21162;SDS011;10739;52.198;20.908;2022-12-10T02:54:50;103.65;;;50.03;;
21162;SDS011;10739;52.198;20.908;2022-12-10T02:57:28;98.00;;;48.60;;
21162;SDS011;10739;52.198;20.908;2022-12-10T03:00:18;96.55;;;46.38;;
21162;SDS011;10739;52.198;20.908;2022-12-10T03:05:42;96.25;;;45.22;;
21162;SDS011;10739;52.198;20.908;2022-12-10T03:11:13;87.40;;;41.75;;
21162;SDS011;10739;52.198;20.908;2022-12-10T03:14:03;83.88;;;42.25;;
21162;SDS011;10739;52.198;20.908;2022-12-10T03:16:42;87.47;;;42.03;;
21162;SDS011;10739;52.198;20.908;2022-12-10T03:19:15;86.55;;;41.90;;
21162;SDS011;10739;52.198;20.908;2022-12-10T03:21:46;83.63;;;41.72;;
21162;SDS011;10739;52.198;20.908;2022-12-10T03:24:15;84.85;;;41.33;;
21162;SDS011;10739;52.198;20.908;2022-12-10T03:26:43;86.57;;;42.67;;
21162;SDS011;10739;52.198;20.908;2022-12-10T03:29:15;88.63;;;41.85;;
21162;SDS011;10739;52.198;20.908;2022-12-10T03:31:49;82.75;;;39.80;;
21162;SDS011;10739;52.198;20.908;2022-12-10T03:34:19;89.30;;;40.25;;
21162;SDS011;10739;52.198;20.908;2022-12-10T03:36:45;86.25;;;39.65;;
21162;SDS011;10739;52.198;20.908;2022-12-10T03:39:14;84.50;;;39.03;;
21162;SDS011;10739;52.198;20.908;2022-12-10T03:41:40;81.43;;;38.03;;
21162;SDS011;10739;52.198;20.908;2022-12-10T03:44:07;90.35;;;40.63;;
21162;SDS011;10739;52.198;20.908;2022-12-10T03:46:33;83.30;;;40.95;;
21162;SDS011;10739;52.198;20.908;2022-12-10T03:49:00;86.63;;;41.10;;
21162;SDS011;10739;52.198;20.908;2022-12-10T03:51:27;87.45;;;39.75;;
21162;SDS011;10739;52.198;20.908;2022-12-10T03:53:53;75.88;;;38.53;;
21162;SDS011;10739;52.198;20.908;2022-12-10T03:56:20;72.43;;;36.88;;
21162;SDS011;10739;52.198;20.908;2022-12-10T03:58:47;73.72;;;36.60;;
21162;SDS011;10739;52.198;20.908;2022-12-10T04:01:14;76.78;;;36.90;;
21162;SDS011;10739;52.198;20.908;2022-12-10T04:03:41;83.53;;;38.78;;
21162;SDS011;10739;52.198;20.908;2022-12-10T04:06:11;85.93;;;40.35;;
21162;SDS011;10739;52.198;20.908;2022-12-10T04:08:43;83.20;;;39.88;;
21162;SDS011;10739;52.198;20.908;2022-12-10T04:11:10;80.90;;;39.03;;
21162;SDS011;10739;52.198;20.908;2022-12-10T04:13:39;84.57;;;39.88;;
21162;SDS011;10739;52.198;20.908;2022-12-10T04:16:24;86.20;;;41.65;;
21162;SDS011;10739;52.198;20.908;2022-12-10T04:18:51;91.00;;;42.40;;
21162;SDS011;10739;52.198;20.908;2022-12-10T04:21:33;79.25;;;39.17;;
21162;SDS011;10739;52.198;20.908;2022-12-10T04:24:24;84.97;;;38.33;;
21162;SDS011;10739;52.198;20.908;2022-12-10T04:27:13;83.18;;;38.00;;
21162;SDS011;10739;52.198;20.908;2022-12-10T04:29:47;81.63;;;39.35;;
21162;SDS011;10739;52.198;20.908;2022-12-10T04:32:15;81.57;;;38.55;;
21162;SDS011;10739;52.198;20.908;2022-12-10T04:34:41;76.25;;;38.65;;
21162;SDS011;10739;52.198;20.908;2022-12-10T04:37:08;83.28;;;39.70;;
21162;SDS011;10739;52.198;20.908;2022-12-10T04:39:36;84.35;;;41.28;;
21162;SDS011;10739;52.198;20.908;2022-12-10T04:42:04;86.47;;;41.40;;
21162;SDS011;10739;52.198;20.908;2022-12-10T04:44:31;90.55;;;40.95;;
21162;SDS011;10739;52.198;20.908;2022-12-10T04:46:58;90.13;;;41.20;;
21162;SDS011;10739;52.198;20.908;2022-12-10T04:49:25;85.72;;;41.30;;
21162;SDS011;10739;52.198;20.908;2022-12-10T04:51:51;93.82;;;44.30;;
21162;SDS011;10739;52.198;20.908;2022-12-10T04:54:18;84.70;;;41.17;;
21162;SDS011;10739;52.198;20.908;2022-12-10T04:56:45;80.88;;;36.83;;
21162;SDS011;10739;52.198;20.908;2022-12-10T04:59:11;84.00;;;38.40;;
21162;SDS011;10739;52.198;20.908;2022-12-10T05:01:38;76.45;;;36.80;;
21162;SDS011;10739;52.198;20.908;2022-12-10T05:04:05;78.75;;;38.42;;
21162;SDS011;10739;52.198;20.908;2022-12-10T05:06:34;80.00;;;36.95;;
21162;SDS011;10739;52.198;20.908;2022-12-10T05:09:02;76.30;;;36.65;;
21162;SDS011;10739;52.198;20.908;2022-12-10T05:11:30;79.50;;;37.40;;
21162;SDS011;10739;52.198;20.908;2022-12-10T05:13:57;91.20;;;40.63;;
21162;SDS011;10739;52.198;20.908;2022-12-10T05:16:25;94.65;;;40.55;;
21162;SDS011;10739;52.198;20.908;2022-12-10T05:18:55;89.63;;;40.67;;
21162;SDS011;10739;52.198;20.908;2022-12-10T05:21:23;94.40;;;40.00;;
21162;SDS011;10739;52.198;20.908;2022-12-10T05:24:10;94.47;;;40.78;;
21162;SDS011;10739;52.198;20.908;2022-12-10T05:26:37;97.93;;;39.20;;
21162;SDS011;10739;52.198;20.908;2022-12-10T05:29:03;86.53;;;38.90;;
21162;SDS011;10739;52.198;20.908;2022-12-10T05:31:30;86.35;;;36.33;;
21162;SDS011;10739;52.198;20.908;2022-12-10T05:33:56;86.60;;;36.67;;
21162;SDS011;10739;52.198;20.908;2022-12-10T05:36:25;83.88;;;36.90;;
21162;SDS011;10739;52.198;20.908;2022-12-10T05:38:56;80.50;;;35.10;;
21162;SDS011;10739;52.198;20.908;2022-12-10T05:41:24;74.65;;;34.03;;
21162;SDS011;10739;52.198;20.908;2022-12-10T05:43:54;82.75;;;35.05;;
21162;SDS011;10739;52.198;20.908;2022-12-10T05:46:23;79.45;;;33.97;;
21162;SDS011;10739;52.198;20.908;2022-12-10T05:48:52;78.75;;;35.15;;
21162;SDS011;10739;52.198;20.908;2022-12-10T05:51:20;69.70;;;31.52;;
21162;SDS011;10739;52.198;20.908;2022-12-10T05:53:50;65.70;;;29.50;;
21162;SDS011;10739;52.198;20.908;2022-12-10T05:56:19;62.45;;;29.02;;
21162;SDS011;10739;52.198;20.908;2022-12-10T05:58:48;52.70;;;24.45;;
21162;SDS011;10739;52.198;20.908;2022-12-10T06:01:17;60.53;;;27.45;;
21162;SDS011;10739;52.198;20.908;2022-12-10T06:03:47;68.65;;;29.52;;
21162;SDS011;10739;52.198;20.908;2022-12-10T06:06:19;66.07;;;28.38;;
21162;SDS011;10739;52.198;20.908;2022-12-10T06:08:50;60.05;;;29.33;;
21162;SDS011;10739;52.198;20.908;2022-12-10T06:11:17;68.72;;;30.13;;
21162;SDS011;10739;52.198;20.908;2022-12-10T06:13:43;67.18;;;31.10;;
21162;SDS011;10739;52.198;20.908;2022-12-10T06:16:10;65.45;;;31.42;;
21162;SDS011;10739;52.198;20.908;2022-12-10T06:18:38;81.80;;;35.92;;
21162;SDS011;10739;52.198;20.908;2022-12-10T06:21:07;90.35;;;37.50;;
21162;SDS011;10739;52.198;20.908;2022-12-10T06:23:36;86.07;;;35.90;;
21162;SDS011;10739;52.198;20.908;2022-12-10T06:26:07;84.78;;;36.63;;
21162;SDS011;10739;52.198;20.908;2022-12-10T06:28:41;88.78;;;36.85;;
21162;SDS011;10739;52.198;20.908;2022-12-10T06:31:11;83.15;;;36.85;;
21162;SDS011;10739;52.198;20.908;2022-12-10T06:33:38;85.70;;;34.78;;
21162;SDS011;10739;52.198;20.908;2022-12-10T06:36:05;83.25;;;36.30;;
21162;SDS011;10739;52.198;20.908;2022-12-10T06:38:34;76.57;;;34.33;;
21162;SDS011;10739;52.198;20.908;2022-12-10T06:41:03;87.32;;;35.10;;
21162;SDS011;10739;52.198;20.908;2022-12-10T06:43:31;73.07;;;32.38;;
21162;SDS011;10739;52.198;20.908;2022-12-10T06:45:57;74.47;;;31.98;;
21162;SDS011;10739;52.198;20.908;2022-12-10T06:48:23;76.85;;;33.75;;
21162;SDS011;10739;52.198;20.908;2022-12-10T06:50:49;80.35;;;33.05;;
21162;SDS011;10739;52.198;20.908;2022-12-10T06:53:15;73.65;;;31.42;;
21162;SDS011;10739;52.198;20.908;2022-12-10T06:55:41;77.38;;;31.60;;
21162;SDS011;10739;52.198;20.908;2022-12-10T06:58:07;77.78;;;31.15;;
21162;SDS011;10739;52.198;20.908;2022-12-10T07:00:34;74.97;;;32.10;;
21162;SDS011;10739;52.198;20.908;2022-12-10T07:03:00;72.13;;;31.58;;
21162;SDS011;10739;52.198;20.908;2022-12-10T07:05:26;77.57;;;31.63;;
21162;SDS011;10739;52.198;20.908;2022-12-10T07:07:52;82.22;;;33.17;;
21162;SDS011;10739;52.198;20.908;2022-12-10T07:10:18;79.10;;;31.35;;
21162;SDS011;10739;52.198;20.908;2022-12-10T07:12:44;81.70;;;32.42;;
21162;SDS011;10739;52.198;20.908;2022-12-10T07:15:11;82.45;;;31.65;;
21162;SDS011;10739;52.198;20.908;2022-12-10T07:17:37;81.78;;;30.92;;
21162;SDS011;10739;52.198;20.908;2022-12-10T07:20:03;82.80;;;31.95;;
21162;SDS011;10739;52.198;20.908;2022-12-10T07:22:30;76.55;;;30.27;;
21162;SDS011;10739;52.198;20.908;2022-12-10T07:24:56;72.03;;;31.25;;
21162;SDS011;10739;52.198;20.908;2022-12-10T07:27:22;75.45;;;30.10;;
21162;SDS011;10739;52.198;20.908;2022-12-10T07:29:48;79.72;;;29.98;;
21162;SDS011;10739;52.198;20.908;2022-12-10T07:32:15;77.25;;;31.02;;
21162;SDS011;10739;52.198;20.908;2022-12-10T07:34:41;80.10;;;31.05;;
21162;SDS011;10739;52.198;20.908;2022-12-10T07:37:07;79.13;;;30.73;;
21162;SDS011;10739;52.198;20.908;2022-12-10T07:39:33;81.18;;;32.35;;
21162;SDS011;10739;52.198;20.908;2022-12-10T07:42:00;75.43;;;30.45;;
21162;SDS011;10739;52.198;20.908;2022-12-10T07:44:26;77.53;;;30.13;;
21162;SDS011;10739;52.198;20.908;2022-12-10T07:46:52;87.15;;;32.90;;
21162;SDS011;10739;52.198;20.908;2022-12-10T07:49:20;83.15;;;31.73;;
21162;SDS011;10739;52.198;20.908;2022-12-10T07:51:47;77.47;;;31.38;;
21162;SDS011;10739;52.198;20.908;2022-12-10T07:54:15;73.72;;;32.10;;
21162;SDS011;10739;52.198;20.908;2022-12-10T07:56:43;79.57;;;31.33;;
21162;SDS011;10739;52.198;20.908;2022-12-10T07:59:10;80.65;;;32.20;;
21162;SDS011;10739;52.198;20.908;2022-12-10T08:01:37;78.93;;;31.48;;
21162;SDS011;10739;52.198;20.908;2022-12-10T08:04:03;82.13;;;32.95;;
21162;SDS011;10739;52.198;20.908;2022-12-10T08:06:29;79.82;;;31.60;;
21162;SDS011;10739;52.198;20.908;2022-12-10T08:08:57;91.47;;;33.97;;
21162;SDS011;10739;52.198;20.908;2022-12-10T08:11:24;85.88;;;31.80;;
21162;SDS011;10739;52.198;20.908;2022-12-10T08:13:52;76.95;;;30.23;;
21162;SDS011;10739;52.198;20.908;2022-12-10T08:16:19;88.68;;;33.25;;
21162;SDS011;10739;52.198;20.908;2022-12-10T08:18:48;84.38;;;31.85;;
21162;SDS011;10739;52.198;20.908;2022-12-10T08:21:15;75.80;;;31.08;;
21162;SDS011;10739;52.198;20.908;2022-12-10T08:23:45;77.68;;;30.30;;
21162;SDS011;10739;52.198;20.908;2022-12-10T08:26:13;73.65;;;28.70;;
21162;SDS011;10739;52.198;20.908;2022-12-10T08:28:42;75.03;;;28.95;;
21162;SDS011;10739;52.198;20.908;2022-12-10T08:31:10;73.45;;;30.08;;
21162;SDS011;10739;52.198;20.908;2022-12-10T08:33:38;72.78;;;30.17;;
21162;SDS011;10739;52.198;20.908;2022-12-10T08:36:05;68.35;;;29.00;;
21162;SDS011;10739;52.198;20.908;2022-12-10T08:38:35;70.18;;;27.00;;
21162;SDS011;10739;52.198;20.908;2022-12-10T08:41:05;65.47;;;26.45;;
21162;SDS011;10739;52.198;20.908;2022-12-10T08:43:38;64.47;;;27.13;;
21162;SDS011;10739;52.198;20.908;2022-12-10T08:46:05;66.65;;;27.10;;
21162;SDS011;10739;52.198;20.908;2022-12-10T08:48:33;77.60;;;27.30;;
21162;SDS011;10739;52.198;20.908;2022-12-10T08:51:01;78.95;;;27.48;;
21162;SDS011;10739;52.198;20.908;2022-12-10T08:53:28;74.93;;;24.77;;
21162;SDS011;10739;52.198;20.908;2022-12-10T08:55:55;60.63;;;25.50;;
21162;SDS011;10739;52.198;20.908;2022-12-10T08:58:21;57.78;;;24.40;;
21162;SDS011;10739;52.198;20.908;2022-12-10T09:00:48;63.97;;;25.73;;
21162;SDS011;10739;52.198;20.908;2022-12-10T09:03:15;67.05;;;25.98;;
21162;SDS011;10739;52.198;20.908;2022-12-10T09:05:41;57.85;;;24.45;;
21162;SDS011;10739;52.198;20.908;2022-12-10T09:08:07;61.03;;;25.55;;
21162;SDS011;10739;52.198;20.908;2022-12-10T09:10:37;64.45;;;24.90;;
21162;SDS011;10739;52.198;20.908;2022-12-10T09:13:06;64.50;;;24.90;;
21162;SDS011;10739;52.198;20.908;2022-12-10T09:15:33;58.55;;;24.40;;
21162;SDS011;10739;52.198;20.908;2022-12-10T09:17:59;54.40;;;25.50;;
21162;SDS011;10739;52.198;20.908;2022-12-10T09:20:25;72.07;;;27.25;;
21162;SDS011;10739;52.198;20.908;2022-12-10T09:22:52;56.13;;;25.30;;
21162;SDS011;10739;52.198;20.908;2022-12-10T09:25:18;60.83;;;25.42;;
21162;SDS011;10739;52.198;20.908;2022-12-10T09:27:46;60.95;;;25.48;;
21162;SDS011;10739;52.198;20.908;2022-12-10T09:30:13;65.22;;;24.98;;
21162;SDS011;10739;52.198;20.908;2022-12-10T09:32:40;53.38;;;22.90;;
21162;SDS011;10739;52.198;20.908;2022-12-10T09:35:07;48.08;;;22.90;;
21162;SDS011;10739;52.198;20.908;2022-12-10T09:37:33;52.40;;;21.85;;
21162;SDS011;10739;52.198;20.908;2022-12-10T09:40:00;57.03;;;22.95;;
21162;SDS011;10739;52.198;20.908;2022-12-10T09:42:42;54.33;;;23.67;;
21162;SDS011;10739;52.198;20.908;2022-12-10T09:45:32;61.80;;;23.85;;
21162;SDS011;10739;52.198;20.908;2022-12-10T09:53:26;69.32;;;25.70;;
21162;SDS011;10739;52.198;20.908;2022-12-10T09:55:55;55.75;;;24.10;;
21162;SDS011;10739;52.198;20.908;2022-12-10T09:58:24;61.80;;;25.08;;
21162;SDS011;10739;52.198;20.908;2022-12-10T10:00:56;55.13;;;23.88;;
21162;SDS011;10739;52.198;20.908;2022-12-10T10:03:40;62.53;;;25.80;;
21162;SDS011;10739;52.198;20.908;2022-12-10T10:06:12;54.72;;;24.85;;
21162;SDS011;10739;52.198;20.908;2022-12-10T10:08:44;44.28;;;18.40;;
21162;SDS011;10739;52.198;20.908;2022-12-10T10:11:23;60.92;;;24.75;;
21162;SDS011;10739;52.198;20.908;2022-12-10T10:16:32;60.72;;;25.75;;
21162;SDS011;10739;52.198;20.908;2022-12-10T10:19:11;55.75;;;23.88;;
21162;SDS011;10739;52.198;20.908;2022-12-10T10:21:41;51.08;;;22.98;;
21162;SDS011;10739;52.198;20.908;2022-12-10T10:24:12;58.53;;;24.70;;
21162;SDS011;10739;52.198;20.908;2022-12-10T10:29:11;54.58;;;21.95;;
21162;SDS011;10739;52.198;20.908;2022-12-10T10:31:42;51.70;;;23.30;;
21162;SDS011;10739;52.198;20.908;2022-12-10T10:36:57;48.03;;;22.33;;
21162;SDS011;10739;52.198;20.908;2022-12-10T10:41:56;51.97;;;23.33;;
21162;SDS011;10739;52.198;20.908;2022-12-10T10:44:28;54.72;;;22.95;;
21162;SDS011;10739;52.198;20.908;2022-12-10T10:47:02;53.05;;;23.20;;
21162;SDS011;10739;52.198;20.908;2022-12-10T10:49:54;59.08;;;24.63;;
21162;SDS011;10739;52.198;20.908;2022-12-10T10:52:21;52.78;;;23.48;;
21162;SDS011;10739;52.198;20.908;2022-12-10T10:54:48;50.83;;;22.88;;
21162;SDS011;10739;52.198;20.908;2022-12-10T10:57:23;52.15;;;24.38;;
21162;SDS011;10739;52.198;20.908;2022-12-10T11:00:19;55.00;;;27.13;;
21162;SDS011;10739;52.198;20.908;2022-12-10T11:02:50;52.90;;;24.45;;
21162;SDS011;10739;52.198;20.908;2022-12-10T11:05:26;53.08;;;24.17;;
21162;SDS011;10739;52.198;20.908;2022-12-10T11:08:02;55.80;;;24.35;;
21162;SDS011;10739;52.198;20.908;2022-12-10T11:10:38;56.15;;;23.90;;
21162;SDS011;10739;52.198;20.908;2022-12-10T11:13:27;47.42;;;22.80;;
21162;SDS011;10739;52.198;20.908;2022-12-10T11:18:55;50.28;;;24.40;;
21162;SDS011;10739;52.198;20.908;2022-12-10T11:21:28;59.38;;;24.52;;
21162;SDS011;10739;52.198;20.908;2022-12-10T11:23:57;54.25;;;24.73;;
21162;SDS011;10739;52.198;20.908;2022-12-10T11:38:35;47.55;;;21.60;;
21162;SDS011;10739;52.198;20.908;2022-12-10T11:41:25;51.40;;;23.25;;
21162;SDS011;10739;52.198;20.908;2022-12-10T11:56:22;65.38;;;26.02;;
21162;SDS011;10739;52.198;20.908;2022-12-10T12:07:33;65.40;;;27.08;;
21162;SDS011;10739;52.198;20.908;2022-12-10T12:19:18;66.35;;;25.10;;
21162;SDS011;10739;52.198;20.908;2022-12-10T12:22:04;75.10;;;25.77;;
21162;SDS011;10739;52.198;20.908;2022-12-10T12:24:42;73.00;;;27.70;;
21162;SDS011;10739;52.198;20.908;2022-12-10T12:27:21;70.30;;;24.88;;
21162;SDS011;10739;52.198;20.908;2022-12-10T12:30:13;68.38;;;26.00;;
21162;SDS011;10739;52.198;20.908;2022-12-10T12:35:42;64.55;;;25.48;;
21162;SDS011;10739;52.198;20.908;2022-12-10T12:41:13;65.43;;;25.52;;
21162;SDS011;10739;52.198;20.908;2022-12-10T12:46:37;63.15;;;24.63;;
21162;SDS011;10739;52.198;20.908;2022-12-10T12:54:31;59.80;;;24.83;;
21162;SDS011;10739;52.198;20.908;2022-12-10T12:57:03;60.50;;;24.15;;
21162;SDS011;10739;52.198;20.908;2022-12-10T12:59:57;59.42;;;25.60;;
21162;SDS011;10739;52.198;20.908;2022-12-10T13:05:41;67.60;;;25.30;;
21162;SDS011;10739;52.198;20.908;2022-12-10T13:10:59;54.17;;;22.85;;
21162;SDS011;10739;52.198;20.908;2022-12-10T13:13:38;58.75;;;24.00;;
21162;SDS011;10739;52.198;20.908;2022-12-10T13:22:00;56.53;;;23.73;;
21162;SDS011;10739;52.198;20.908;2022-12-10T13:25:11;50.92;;;23.35;;
21162;SDS011;10739;52.198;20.908;2022-12-10T13:28:30;55.40;;;24.67;;
21162;SDS011;10739;52.198;20.908;2022-12-10T13:33:54;52.90;;;23.08;;
21162;SDS011;10739;52.198;20.908;2022-12-10T13:45:22;53.90;;;23.60;;
21162;SDS011;10739;52.198;20.908;2022-12-10T13:50:56;57.55;;;24.23;;
21162;SDS011;10739;52.198;20.908;2022-12-10T13:53:50;57.22;;;25.73;;
21162;SDS011;10739;52.198;20.908;2022-12-10T13:56:29;56.47;;;27.08;;
21162;SDS011;10739;52.198;20.908;2022-12-10T13:59:24;68.80;;;28.88;;
21162;SDS011;10739;52.198;20.908;2022-12-10T14:08:32;54.40;;;25.13;;
21162;SDS011;10739;52.198;20.908;2022-12-10T14:11:04;54.55;;;26.38;;
21162;SDS011;10739;52.198;20.908;2022-12-10T14:13:42;57.15;;;25.30;;
21162;SDS011;10739;52.198;20.908;2022-12-10T14:16:18;54.58;;;25.83;;
21162;SDS011;10739;52.198;20.908;2022-12-10T14:18:53;57.72;;;26.80;;
21162;SDS011;10739;52.198;20.908;2022-12-10T14:21:31;59.42;;;27.20;;
21162;SDS011;10739;52.198;20.908;2022-12-10T14:24:24;58.47;;;26.88;;
21162;SDS011;10739;52.198;20.908;2022-12-10T14:26:58;57.10;;;27.75;;
21162;SDS011;10739;52.198;20.908;2022-12-10T14:30:34;63.30;;;28.45;;
21162;SDS011;10739;52.198;20.908;2022-12-10T14:32:48;57.38;;;26.92;;
21162;SDS011;10739;52.198;20.908;2022-12-10T14:35:23;53.40;;;26.23;;
21162;SDS011;10739;52.198;20.908;2022-12-10T14:37:52;47.72;;;23.48;;
21162;SDS011;10739;52.198;20.908;2022-12-10T14:43:05;46.10;;;23.80;;
21162;SDS011;10739;52.198;20.908;2022-12-10T14:45:47;45.67;;;22.83;;
21162;SDS011;10739;52.198;20.908;2022-12-10T14:48:19;41.83;;;23.23;;
21162;SDS011;10739;52.198;20.908;2022-12-10T14:50:45;43.28;;;23.20;;
21162;SDS011;10739;52.198;20.908;2022-12-10T14:53:16;42.72;;;23.90;;
21162;SDS011;10739;52.198;20.908;2022-12-10T14:55:48;45.30;;;22.77;;
21162;SDS011;10739;52.198;20.908;2022-12-10T14:58:26;45.67;;;23.80;;
21162;SDS011;10739;52.198;20.908;2022-12-10T15:01:01;43.28;;;23.80;;
21162;SDS011;10739;52.198;20.908;2022-12-10T15:03:30;43.90;;;25.50;;
21162;SDS011;10739;52.198;20.908;2022-12-10T15:06:06;40.35;;;23.08;;
21162;SDS011;10739;52.198;20.908;2022-12-10T15:08:34;46.58;;;25.13;;
21162;SDS011;10739;52.198;20.908;2022-12-10T15:11:02;46.67;;;24.55;;
21162;SDS011;10739;52.198;20.908;2022-12-10T15:13:39;52.55;;;25.88;;
21162;SDS011;10739;52.198;20.908;2022-12-10T15:16:19;47.47;;;26.05;;
21162;SDS011;10739;52.198;20.908;2022-12-10T15:19:45;47.88;;;24.63;;
21162;SDS011;10739;52.198;20.908;2022-12-10T15:21:58;47.88;;;24.83;;
21162;SDS011;10739;52.198;20.908;2022-12-10T15:24:46;49.25;;;26.00;;
21162;SDS011;10739;52.198;20.908;2022-12-10T15:27:20;49.25;;;26.45;;
21162;SDS011;10739;52.198;20.908;2022-12-10T15:29:49;52.97;;;27.17;;
21162;SDS011;10739;52.198;20.908;2022-12-10T15:32:22;47.95;;;26.98;;
21162;SDS011;10739;52.198;20.908;2022-12-10T15:34:53;51.95;;;28.85;;
21162;SDS011;10739;52.198;20.908;2022-12-10T15:37:33;51.30;;;27.75;;
21162;SDS011;10739;52.198;20.908;2022-12-10T15:40:04;50.92;;;28.02;;
21162;SDS011;10739;52.198;20.908;2022-12-10T15:42:46;50.22;;;26.42;;
21162;SDS011;10739;52.198;20.908;2022-12-10T15:45:23;53.25;;;28.05;;
21162;SDS011;10739;52.198;20.908;2022-12-10T15:48:03;49.50;;;27.13;;
21162;SDS011;10739;52.198;20.908;2022-12-10T15:50:38;51.70;;;27.58;;
21162;SDS011;10739;52.198;20.908;2022-12-10T15:53:10;52.60;;;29.38;;
21162;SDS011;10739;52.198;20.908;2022-12-10T15:55:39;51.08;;;28.45;;
21162;SDS011;10739;52.198;20.908;2022-12-10T15:58:10;47.33;;;26.17;;
21162;SDS011;10739;52.198;20.908;2022-12-10T16:00:39;48.85;;;27.88;;
21162;SDS011;10739;52.198;20.908;2022-12-10T16:03:10;51.78;;;27.83;;
21162;SDS011;10739;52.198;20.908;2022-12-10T16:05:40;49.33;;;28.95;;
21162;SDS011;10739;52.198;20.908;2022-12-10T16:08:18;50.45;;;29.27;;
21162;SDS011;10739;52.198;20.908;2022-12-10T16:10:49;49.25;;;26.48;;
21162;SDS011;10739;52.198;20.908;2022-12-10T16:13:19;51.20;;;27.70;;
21162;SDS011;10739;52.198;20.908;2022-12-10T16:15:57;49.80;;;27.60;;
21162;SDS011;10739;52.198;20.908;2022-12-10T16:18:28;48.70;;;26.83;;
21162;SDS011;10739;52.198;20.908;2022-12-10T16:20:54;48.65;;;27.20;;
21162;SDS011;10739;52.198;20.908;2022-12-10T16:23:20;46.15;;;27.63;;
21162;SDS011;10739;52.198;20.908;2022-12-10T16:25:47;50.08;;;27.90;;
21162;SDS011;10739;52.198;20.908;2022-12-10T16:28:14;48.17;;;27.63;;
21162;SDS011;10739;52.198;20.908;2022-12-10T16:30:50;43.95;;;26.60;;
21162;SDS011;10739;52.198;20.908;2022-12-10T16:33:24;44.65;;;26.50;;
21162;SDS011;10739;52.198;20.908;2022-12-10T16:35:53;45.95;;;25.92;;
21162;SDS011;10739;52.198;20.908;2022-12-10T16:38:22;50.55;;;27.70;;
21162;SDS011;10739;52.198;20.908;2022-12-10T16:40:49;49.28;;;26.67;;
21162;SDS011;10739;52.198;20.908;2022-12-10T16:43:20;52.97;;;30.02;;
21162;SDS011;10739;52.198;20.908;2022-12-10T16:45:53;51.88;;;27.95;;
21162;SDS011;10739;52.198;20.908;2022-12-10T16:48:20;45.33;;;27.05;;